Time;durP1;ratioP1;P1;durP2;ratioP2;P2;SDS_P1;SDS_P2;PMS_P1;PMS_P2;Temp;Humidity;BMP_temperature;BMP_pressure;BME280_temperature;BME280_humidity;BME280_pressure;Samples;Min_cycle;Max_cycle;Signal;HPM_P1;HPM_P2
2023/09/22 00:00:14;;;;;;;9.23;5.55;;;;;;;15.16;100.00;96766.69;2602174;28;20044;-86
2023/09/22 00:01:54;;;;;;;8.43;5.45;;;;;;;15.11;100.00;96767.03;2609087;28;20053;-86
2023/09/22 00:03:10;;;;;;;8.48;5.82;;;;;;;15.27;100.00;96768.53;2609128;28;20136;-86
2023/09/22 00:04:26;;;;;;;12.23;6.95;;;;;;;15.23;100.00;96772.34;2609132;28;20174;-86
2023/09/22 00:05:41;;;;;;;10.85;7.40;;;;;;;15.21;100.00;96780.38;2609196;28;20658;-86
2023/09/22 00:06:57;;;;;;;6.90;5.45;;;;;;;15.15;100.00;96774.72;2609205;28;20499;-86
2023/09/22 00:08:13;;;;;;;6.95;5.57;;;;;;;15.15;100.00;96772.06;2609411;28;20484;-86
2023/09/22 00:09:28;;;;;;;7.57;5.65;;;;;;;15.08;100.00;96769.03;2609267;28;20049;-86
2023/09/22 00:10:45;;;;;;;9.25;5.38;;;;;;;15.02;100.00;96761.59;2608866;28;20152;-86
2023/09/22 00:12:00;;;;;;;7.55;5.90;;;;;;;14.99;100.00;96757.38;2609062;28;20135;-86
2023/09/22 00:13:16;;;;;;;6.47;5.38;;;;;;;15.04;100.00;96762.31;2609197;28;20045;-86
2023/09/22 00:14:33;;;;;;;8.18;5.60;;;;;;;15.11;100.00;96763.53;2609094;28;20542;-86
2023/09/22 00:15:48;;;;;;;9.07;5.85;;;;;;;15.18;100.00;96770.06;2609062;28;20056;-86
2023/09/22 00:17:05;;;;;;;7.07;5.72;;;;;;;15.32;100.00;96770.84;2609306;28;20049;-86
2023/09/22 00:18:21;;;;;;;7.03;5.25;;;;;;;15.26;100.00;96772.13;2608831;28;20119;-86
2023/09/22 00:19:36;;;;;;;9.45;5.45;;;;;;;15.17;100.00;96773.66;2609238;28;20049;-86
2023/09/22 00:20:54;;;;;;;7.05;5.85;;;;;;;15.13;100.00;96776.63;2609128;28;20053;-86
2023/09/22 00:22:10;;;;;;;8.02;5.60;;;;;;;15.04;100.00;96780.78;2609178;28;20048;-86
2023/09/22 00:23:26;;;;;;;6.78;5.35;;;;;;;14.98;100.00;96779.44;2609106;28;20174;-86
2023/09/22 00:24:41;;;;;;;5.78;4.85;;;;;;;14.95;100.00;96779.66;2608978;28;20049;-86
2023/09/22 00:25:57;;;;;;;7.70;5.68;;;;;;;14.95;100.00;96784.94;2608789;28;20049;-86
2023/09/22 00:27:15;;;;;;;9.32;5.53;;;;;;;14.96;100.00;96776.06;2609062;28;20185;-86
2023/09/22 00:28:31;;;;;;;7.18;5.00;;;;;;;14.96;100.00;96778.69;2608696;28;20045;-86
2023/09/22 00:29:46;;;;;;;10.00;5.53;;;;;;;14.90;100.00;96784.41;2608876;28;20420;-86
2023/09/22 00:31:02;;;;;;;7.03;4.70;;;;;;;14.92;100.00;96785.97;2609021;28;20049;-86
2023/09/22 00:32:18;;;;;;;6.25;4.30;;;;;;;14.91;100.00;96784.28;2597467;28;20521;-86
2023/09/22 00:33:34;;;;;;;7.97;5.63;;;;;;;14.81;100.00;96776.22;2602143;28;20091;-86
2023/09/22 00:34:49;;;;;;;7.15;4.80;;;;;;;14.76;100.00;96772.25;2609212;28;20045;-86
2023/09/22 00:36:05;;;;;;;7.68;5.13;;;;;;;14.66;100.00;96767.59;2608956;28;20041;-86
2023/09/22 00:37:21;;;;;;;9.25;5.30;;;;;;;14.61;100.00;96759.19;2609120;28;20040;-86
2023/09/22 00:38:37;;;;;;;11.05;5.93;;;;;;;14.61;100.00;96755.69;2608709;28;20080;-86
2023/09/22 00:39:52;;;;;;;11.27;6.70;;;;;;;14.53;100.00;96753.59;2608830;28;20048;-86
2023/09/22 00:41:07;;;;;;;9.55;6.63;;;;;;;14.50;100.00;96752.03;2609062;28;20063;-85
2023/09/22 00:42:23;;;;;;;10.77;6.43;;;;;;;14.64;100.00;96756.31;2608743;28;20048;-85
2023/09/22 00:43:39;;;;;;;7.68;6.32;;;;;;;14.71;100.00;96762.00;2597673;28;20533;-85
2023/09/22 00:44:54;;;;;;;7.53;5.82;;;;;;;14.67;100.00;96760.53;2602111;28;20041;-85
2023/09/22 00:46:12;;;;;;;7.80;5.90;;;;;;;14.62;100.00;96754.75;2608891;28;20951;-85
2023/09/22 00:47:27;;;;;;;8.32;6.78;;;;;;;14.66;100.00;96748.28;2608625;28;20362;-85
2023/09/22 00:48:43;;;;;;;9.02;6.68;;;;;;;14.69;100.00;96754.19;2608944;28;20084;-86
2023/09/22 00:49:59;;;;;;;10.55;7.45;;;;;;;14.76;100.00;96759.06;2597401;28;20104;-86
2023/09/22 00:51:19;;;;;;;8.93;5.97;;;;;;;14.90;100.00;96758.91;2602028;28;20052;-85
2023/09/22 00:52:35;;;;;;;7.85;5.78;;;;;;;15.02;100.00;96759.78;2608453;28;20046;-85
2023/09/22 00:53:51;;;;;;;8.60;6.55;;;;;;;14.97;100.00;96759.28;2609030;28;20053;-85
2023/09/22 00:55:07;;;;;;;9.55;6.13;;;;;;;14.96;100.00;96757.63;2608771;28;20072;-86
2023/09/22 00:56:23;;;;;;;9.35;6.03;;;;;;;14.96;100.00;96768.16;2608871;28;20071;-85
2023/09/22 00:57:39;;;;;;;11.35;6.57;;;;;;;15.10;100.00;96769.78;2608589;28;20136;-85
2023/09/22 00:58:54;;;;;;;10.77;6.75;;;;;;;15.21;100.00;96775.09;2608411;28;20493;-86
2023/09/22 01:00:11;;;;;;;6.47;5.88;;;;;;;15.22;100.00;96778.56;2608664;28;20056;-85
2023/09/22 01:01:26;;;;;;;9.25;6.35;;;;;;;15.11;100.00;96779.34;2608556;28;20048;-85
2023/09/22 01:02:42;;;;;;;11.95;6.40;;;;;;;14.99;100.00;96775.84;2608409;28;20132;-85
2023/09/22 01:03:58;;;;;;;10.43;6.05;;;;;;;14.94;100.00;96783.22;2608521;28;20236;-85
2023/09/22 01:05:13;;;;;;;8.05;5.93;;;;;;;15.03;100.00;96794.91;2608702;28;20052;-86
2023/09/22 01:06:29;;;;;;;8.68;5.45;;;;;;;15.07;100.00;96823.53;2608668;28;20045;-86
2023/09/22 01:07:45;;;;;;;6.53;4.55;;;;;;;14.84;100.00;96875.25;2608657;28;20390;-85
2023/09/22 01:09:05;;;;;;;6.13;4.22;;;;;;;14.60;100.00;96886.56;2607748;28;20047;-85
2023/09/22 01:10:21;;;;;;;8.65;4.43;;;;;;;14.55;100.00;96893.91;2597415;28;20132;-85
2023/09/22 01:11:36;;;;;;;7.40;5.25;;;;;;;14.78;100.00;96883.59;2601683;28;20052;-85
2023/09/22 01:12:53;;;;;;;11.38;6.65;;;;;;;14.92;100.00;96869.44;2608269;28;20520;-86
2023/09/22 01:14:09;;;;;;;10.38;7.00;;;;;;;15.02;100.00;96846.75;2608964;28;20492;-85
2023/09/22 01:15:25;;;;;;;11.18;7.75;;;;;;;15.15;100.00;96848.50;2608752;28;20760;-85
2023/09/22 01:16:41;;;;;;;9.43;7.70;;;;;;;15.24;100.00;96863.69;2608436;28;20049;-86
2023/09/22 01:17:57;;;;;;;10.70;7.68;;;;;;;15.29;100.00;96876.50;2608544;28;20968;-85
2023/09/22 01:19:16;;;;;;;10.02;6.57;;;;;;;15.14;100.00;96878.47;2608579;28;20053;-85
2023/09/22 01:20:38;;;;;;;10.82;7.10;;;;;;;15.33;100.00;96904.34;2608715;28;20130;-86
2023/09/22 01:21:53;;;;;;;13.40;7.70;;;;;;;15.38;100.00;96894.28;2608784;28;20546;-85
2023/09/22 01:23:13;;;;;;;11.20;7.40;;;;;;;15.31;100.00;96864.06;2608742;28;20048;-85
2023/09/22 01:24:28;;;;;;;15.45;8.25;;;;;;;15.26;100.00;96851.22;2608713;28;20056;-85
2023/09/22 01:25:45;;;;;;;12.68;8.10;;;;;;;15.48;100.00;96873.38;2608538;28;20049;-85
2023/09/22 01:27:03;;;;;;;10.10;7.20;;;;;;;15.41;100.00;96869.50;2608719;28;20459;-85
2023/09/22 01:28:19;;;;;;;12.45;8.48;;;;;;;15.32;100.00;96860.47;2597066;28;20528;-85
2023/09/22 01:29:35;;;;;;;10.85;7.22;;;;;;;15.05;100.00;96857.06;2601646;28;20044;-85
2023/09/22 01:30:50;;;;;;;10.90;8.13;;;;;;;15.20;100.00;96868.31;2608723;28;20045;-85
2023/09/22 01:32:09;;;;;;;17.00;7.38;;;;;;;15.17;100.00;96865.91;2608484;28;20068;-86
2023/09/22 01:33:25;;;;;;;10.68;7.50;;;;;;;15.09;100.00;96877.00;2608527;28;20128;-85
2023/09/22 01:34:40;;;;;;;12.32;7.65;;;;;;;15.11;100.00;96872.47;2608883;28;20045;-85
2023/09/22 01:35:56;;;;;;;12.70;8.07;;;;;;;15.07;100.00;96875.44;2608573;28;20053;-86
2023/09/22 01:37:12;;;;;;;8.30;6.78;;;;;;;15.08;100.00;96864.75;2608605;28;20405;-85
2023/09/22 01:38:28;;;;;;;10.02;7.53;;;;;;;15.11;100.00;96851.38;2608604;28;20088;-85
2023/09/22 01:39:43;;;;;;;11.52;7.88;;;;;;;15.13;100.00;96843.34;2596983;28;20442;-86
2023/09/22 01:40:59;;;;;;;10.80;7.78;;;;;;;15.18;100.00;96851.78;2601630;28;20115;-85
2023/09/22 01:42:14;;;;;;;11.55;8.25;;;;;;;15.18;100.00;96843.00;2608568;28;20047;-85
2023/09/22 01:43:30;;;;;;;15.20;8.32;;;;;;;15.26;100.00;96859.13;2608366;28;20044;-85
2023/09/22 01:44:46;;;;;;;12.57;9.75;;;;;;;15.32;100.00;96858.66;2608702;28;20045;-86
2023/09/22 01:46:02;;;;;;;11.77;8.05;;;;;;;15.30;100.00;96851.84;2608658;28;20080;-85
2023/09/22 01:47:17;;;;;;;13.43;8.23;;;;;;;15.31;100.00;96842.97;2608026;28;20049;-86
2023/09/22 01:48:33;;;;;;;11.05;8.40;;;;;;;15.31;100.00;96843.81;2608631;28;20056;-86
2023/09/22 01:49:48;;;;;;;11.00;7.97;;;;;;;15.51;100.00;96852.88;2608475;28;20064;-86
2023/09/22 01:51:04;;;;;;;11.93;8.48;;;;;;;15.62;100.00;96854.72;2608492;28;20106;-85
2023/09/22 01:52:19;;;;;;;14.32;8.57;;;;;;;15.64;100.00;96859.91;2608438;28;20408;-85
2023/09/22 01:53:35;;;;;;;9.52;8.02;;;;;;;15.80;100.00;96881.53;2608385;28;20056;-85
2023/09/22 01:54:50;;;;;;;10.95;7.47;;;;;;;15.80;100.00;96886.00;2608498;28;20045;-85
2023/09/22 01:56:06;;;;;;;13.23;7.90;;;;;;;15.71;100.00;96895.41;2608541;28;20045;-85
2023/09/22 01:57:22;;;;;;;11.77;7.40;;;;;;;15.73;100.00;96892.66;2596917;28;20085;-86
2023/09/22 01:58:37;;;;;;;10.65;7.38;;;;;;;15.49;100.00;96883.81;2611515;28;20603;-85
2023/09/22 01:59:53;;;;;;;13.77;8.27;;;;;;;15.47;100.00;96887.50;2614021;28;20049;-85
2023/09/22 02:01:08;;;;;;;11.68;7.80;;;;;;;15.44;100.00;96885.97;2608204;28;20102;-85
2023/09/22 02:02:24;;;;;;;13.40;7.57;;;;;;;15.42;100.00;96887.00;2608489;28;20081;-85
2023/09/22 02:03:40;;;;;;;13.88;8.70;;;;;;;15.49;100.00;96893.50;2608409;28;20107;-86
2023/09/22 02:04:55;;;;;;;11.50;8.65;;;;;;;15.55;100.00;96898.34;2608386;28;20056;-85
2023/09/22 02:06:11;;;;;;;10.55;8.63;;;;;;;15.61;100.00;96895.25;2608442;28;20496;-86
2023/09/22 02:07:26;;;;;;;11.70;8.15;;;;;;;15.63;100.00;96901.25;2608542;28;20053;-85
2023/09/22 02:08:43;;;;;;;9.93;7.93;;;;;;;15.57;100.00;96893.81;2608534;28;20072;-85
2023/09/22 02:09:58;;;;;;;11.93;8.00;;;;;;;15.57;100.00;96891.16;2608453;28;20994;-85
2023/09/22 02:11:14;;;;;;;10.65;7.45;;;;;;;15.51;100.00;96884.53;2608548;28;20049;-85
2023/09/22 02:12:30;;;;;;;11.10;7.68;;;;;;;15.49;100.00;96888.22;2608257;28;20053;-86
2023/09/22 02:13:46;;;;;;;11.27;7.22;;;;;;;15.53;100.00;96900.25;2608170;28;20156;-86
2023/09/22 02:15:02;;;;;;;10.82;7.90;;;;;;;15.51;100.00;96897.72;2608612;28;20052;-86
2023/09/22 02:16:18;;;;;;;11.20;7.60;;;;;;;15.44;100.00;96890.38;2608409;28;20447;-85
2023/09/22 02:17:33;;;;;;;10.63;7.20;;;;;;;15.39;100.00;96885.44;2608344;28;20049;-85
2023/09/22 02:18:50;;;;;;;12.57;7.65;;;;;;;15.39;100.00;96883.66;2608601;28;20544;-86
2023/09/22 02:20:18;;;;;;;10.15;6.95;;;;;;;15.30;100.00;96878.22;2608193;28;20555;-86
2023/09/22 02:21:33;;;;;;;10.48;7.35;;;;;;;15.27;100.00;96874.00;2610528;28;20052;-86
2023/09/22 02:22:55;;;;;;;10.48;7.70;;;;;;;15.37;100.00;96884.72;2610214;28;20068;-86
2023/09/22 02:24:10;;;;;;;11.57;7.60;;;;;;;15.33;100.00;96877.97;2609982;28;20132;-86
2023/09/22 02:25:26;;;;;;;11.43;7.25;;;;;;;15.29;100.00;96887.91;2610555;28;20056;-86
2023/09/22 02:26:41;;;;;;;11.90;7.63;;;;;;;15.37;100.00;96895.25;2610353;28;20052;-86
2023/09/22 02:27:58;;;;;;;11.27;7.95;;;;;;;15.42;100.00;96897.56;2610205;28;20045;-86
2023/09/22 02:29:14;;;;;;;9.88;7.53;;;;;;;15.44;100.00;96895.66;2610067;28;20049;-85
2023/09/22 02:30:30;;;;;;;11.93;7.85;;;;;;;15.52;100.00;96899.41;2610059;28;20598;-85
2023/09/22 02:31:45;;;;;;;10.73;7.55;;;;;;;15.50;100.00;96901.31;2609953;28;20059;-86
2023/09/22 02:33:01;;;;;;;10.18;7.82;;;;;;;15.51;100.00;96910.91;2610191;28;20144;-85
2023/09/22 02:34:20;;;;;;;9.85;8.13;;;;;;;15.63;100.00;96914.44;2609960;28;20492;-86
2023/09/22 02:35:40;;;;;;;10.95;8.18;;;;;;;15.59;100.00;96920.09;2610201;28;20558;-86
2023/09/22 02:36:56;;;;;;;10.73;7.88;;;;;;;15.69;100.00;96918.44;2610176;28;20492;-85
2023/09/22 02:38:11;;;;;;;11.05;8.25;;;;;;;15.67;100.00;96922.97;2610134;28;20091;-85
2023/09/22 02:39:27;;;;;;;10.45;7.22;;;;;;;15.66;100.00;96924.78;2610062;28;20045;-85
2023/09/22 02:40:44;;;;;;;10.07;7.32;;;;;;;15.48;100.00;96918.19;2610037;28;20049;-86
2023/09/22 02:41:59;;;;;;;12.48;7.65;;;;;;;15.47;100.00;96920.00;2610201;28;20072;-85
2023/09/22 02:43:15;;;;;;;11.00;7.72;;;;;;;15.35;100.00;96921.72;2610090;28;20484;-86
2023/09/22 02:44:30;;;;;;;11.73;7.68;;;;;;;15.30;100.00;96918.59;2610113;28;20041;-86
2023/09/22 02:45:46;;;;;;;10.52;7.85;;;;;;;15.27;100.00;96921.44;2598376;28;20152;-86
2023/09/22 02:47:02;;;;;;;10.98;8.30;;;;;;;15.32;100.00;96927.22;2602886;28;20080;-86
2023/09/22 02:48:17;;;;;;;9.25;7.45;;;;;;;15.27;100.00;96931.13;2609865;28;20053;-85
2023/09/22 02:49:33;;;;;;;10.35;7.60;;;;;;;15.23;100.00;96922.63;2609923;28;20048;-85
2023/09/22 02:50:48;;;;;;;10.68;8.13;;;;;;;15.22;100.00;96929.69;2598415;28;20484;-87
2023/09/22 02:52:04;;;;;;;12.13;8.43;;;;;;;15.20;100.00;96934.22;2603211;28;20052;-85
2023/09/22 02:53:19;;;;;;;11.52;7.88;;;;;;;15.18;100.00;96925.59;2610032;28;20052;-85
2023/09/22 02:54:35;;;;;;;12.27;8.00;;;;;;;15.16;100.00;96932.78;2609688;28;20216;-86
2023/09/22 02:55:50;;;;;;;13.75;8.10;;;;;;;15.18;100.00;96933.50;2610043;28;20068;-86
2023/09/22 02:57:06;;;;;;;13.40;8.60;;;;;;;15.17;100.00;96933.59;2609840;28;20073;-86
2023/09/22 02:58:23;;;;;;;11.82;8.60;;;;;;;15.18;100.00;96933.50;2609845;28;20280;-86
2023/09/22 02:59:38;;;;;;;13.55;8.25;;;;;;;15.27;100.00;96936.41;2609680;28;20099;-85
2023/09/22 03:00:54;;;;;;;10.10;8.15;;;;;;;15.22;100.00;96939.38;2609687;28;20477;-86
2023/09/22 03:02:09;;;;;;;12.55;7.50;;;;;;;15.17;100.00;96936.22;2609866;28;20041;-86
2023/09/22 03:03:25;;;;;;;11.38;7.72;;;;;;;15.05;100.00;96938.78;2609969;28;20041;-85
2023/09/22 03:04:40;;;;;;;9.35;7.40;;;;;;;15.01;100.00;96942.59;2609632;28;20542;-85
2023/09/22 03:05:59;;;;;;;11.63;8.38;;;;;;;15.09;100.00;96942.06;2610090;28;20045;-86
2023/09/22 03:07:15;;;;;;;12.13;8.07;;;;;;;15.12;100.00;96947.09;2609870;28;20052;-85
2023/09/22 03:08:30;;;;;;;11.40;8.35;;;;;;;15.20;100.00;96942.13;2609776;28;20048;-86
2023/09/22 03:09:46;;;;;;;9.15;8.00;;;;;;;15.14;100.00;96942.56;2610033;28;20049;-85
2023/09/22 03:11:01;;;;;;;13.50;7.80;;;;;;;15.09;100.00;96944.69;2609918;28;20053;-86
2023/09/22 03:12:18;;;;;;;11.52;7.65;;;;;;;15.08;100.00;96954.38;2609368;28;20051;-86
2023/09/22 03:13:34;;;;;;;9.63;7.50;;;;;;;15.05;100.00;96954.59;2609967;28;20048;-86
2023/09/22 03:14:49;;;;;;;11.80;8.02;;;;;;;15.11;100.00;96946.28;2609629;28;20126;-86
2023/09/22 03:16:04;;;;;;;11.27;7.70;;;;;;;15.00;100.00;96948.81;2610261;28;20048;-86
2023/09/22 03:17:20;;;;;;;11.68;8.00;;;;;;;14.97;100.00;96951.66;2609562;28;20049;-85
2023/09/22 03:18:36;;;;;;;8.32;7.15;;;;;;;14.99;100.00;96951.53;2609779;28;20056;-85
2023/09/22 03:19:51;;;;;;;9.80;7.07;;;;;;;14.98;100.00;96958.63;2609832;28;20076;-85
2023/09/22 03:21:07;;;;;;;10.85;8.13;;;;;;;15.01;100.00;96965.44;2609413;28;20049;-85
2023/09/22 03:22:23;;;;;;;8.65;7.47;;;;;;;15.03;100.00;96961.78;2609635;28;20159;-86
2023/09/22 03:23:38;;;;;;;11.95;7.38;;;;;;;15.08;100.00;96967.56;2609908;28;20056;-85
2023/09/22 03:24:54;;;;;;;8.27;6.90;;;;;;;15.12;100.00;96968.19;2609645;28;20119;-86
2023/09/22 03:26:09;;;;;;;10.60;7.22;;;;;;;15.18;100.00;96975.69;2609685;28;20095;-85
2023/09/22 03:27:25;;;;;;;9.65;7.50;;;;;;;15.21;100.00;96979.88;2609799;28;20610;-86
2023/09/22 03:28:41;;;;;;;10.52;6.68;;;;;;;15.22;100.00;96982.41;2609574;28;20071;-85
2023/09/22 03:29:56;;;;;;;8.60;7.22;;;;;;;15.23;100.00;96985.91;2609861;28;20049;-85
2023/09/22 03:31:12;;;;;;;10.82;6.38;;;;;;;15.23;100.00;96988.53;2609616;28;20159;-85
2023/09/22 03:32:28;;;;;;;8.43;6.43;;;;;;;15.18;100.00;96991.50;2608163;28;20052;-85
2023/09/22 03:33:46;;;;;;;7.85;6.70;;;;;;;15.14;100.00;96989.19;2609488;28;20405;-86
2023/09/22 03:35:06;;;;;;;10.88;7.05;;;;;;;15.11;100.00;96991.09;2609607;28;20554;-85
2023/09/22 03:36:21;;;;;;;10.52;7.28;;;;;;;15.14;100.00;96986.53;2609639;28;20403;-86
2023/09/22 03:37:37;;;;;;;10.13;7.43;;;;;;;15.17;100.00;96994.22;2609759;28;20140;-85
2023/09/22 03:38:53;;;;;;;10.70;8.10;;;;;;;15.21;100.00;96988.63;2609147;28;20056;-86
2023/09/22 03:40:20;;;;;;;9.60;7.00;;;;;;;15.22;100.00;96984.19;2609427;28;20106;-85
2023/09/22 03:41:36;;;;;;;12.32;6.85;;;;;;;15.25;100.00;96984.00;2609491;28;20472;-85
2023/09/22 03:42:52;;;;;;;9.80;6.88;;;;;;;15.28;100.00;96985.56;2609512;28;20041;-85
2023/09/22 03:44:08;;;;;;;9.65;6.85;;;;;;;15.27;100.00;96990.00;2598245;28;20046;-86
2023/09/22 03:45:23;;;;;;;10.65;7.50;;;;;;;15.34;100.00;96990.41;2602531;28;20048;-85
2023/09/22 03:46:39;;;;;;;10.77;7.00;;;;;;;15.34;100.00;96991.22;2609346;28;20060;-86
2023/09/22 03:47:54;;;;;;;11.95;7.38;;;;;;;15.36;100.00;96989.31;2609095;28;20072;-86
2023/09/22 03:49:10;;;;;;;8.25;6.28;;;;;;;15.33;100.00;96984.28;2609356;28;20056;-85
2023/09/22 03:50:26;;;;;;;7.75;6.32;;;;;;;15.38;100.00;96986.59;2609561;28;20053;-85
2023/09/22 03:51:41;;;;;;;11.00;7.10;;;;;;;15.41;100.00;96975.81;2609449;28;20618;-86
2023/09/22 03:52:57;;;;;;;8.68;6.97;;;;;;;15.37;100.00;96985.78;2608933;28;20056;-86
2023/09/22 03:54:13;;;;;;;10.10;6.97;;;;;;;15.39;100.00;96983.88;2609269;28;20045;-86
2023/09/22 03:55:29;;;;;;;10.27;7.03;;;;;;;15.34;100.00;96988.59;2609177;28;20048;-85
2023/09/22 03:56:45;;;;;;;9.63;6.57;;;;;;;15.31;100.00;96980.91;2609161;28;20045;-85
2023/09/22 03:58:01;;;;;;;7.90;6.57;;;;;;;15.30;100.00;96981.03;2609366;28;20150;-85
2023/09/22 03:59:16;;;;;;;10.30;6.43;;;;;;;15.28;100.00;96969.72;2609231;28;20053;-85
2023/09/22 04:00:32;;;;;;;9.80;6.95;;;;;;;15.27;100.00;96968.91;2609607;28;20041;-86
2023/09/22 04:01:48;;;;;;;10.23;7.78;;;;;;;15.31;100.00;96967.72;2609076;28;20045;-85
2023/09/22 04:03:09;;;;;;;11.85;7.88;;;;;;;15.32;100.00;96969.41;2609170;28;20055;-85
2023/09/22 04:04:24;;;;;;;10.38;7.60;;;;;;;15.37;100.00;96969.09;2608947;28;20497;-86
2023/09/22 04:05:40;;;;;;;10.10;7.50;;;;;;;15.42;100.00;96977.50;2609281;28;20389;-86
2023/09/22 04:06:57;;;;;;;9.93;7.10;;;;;;;15.47;100.00;96983.31;2609228;28;20052;-85
2023/09/22 04:08:13;;;;;;;11.80;7.47;;;;;;;15.53;100.00;96987.31;2609050;28;20076;-85
2023/09/22 04:09:29;;;;;;;11.48;7.30;;;;;;;15.58;100.00;97000.16;2609260;28;20730;-85
2023/09/22 04:10:44;;;;;;;11.48;7.75;;;;;;;15.65;100.00;96998.75;2609357;28;20048;-85
2023/09/22 04:12:00;;;;;;;9.68;7.05;;;;;;;15.70;100.00;96995.78;2608962;28;20429;-86
2023/09/22 04:13:15;;;;;;;9.98;7.05;;;;;;;15.77;100.00;96994.38;2609382;28;20394;-85
2023/09/22 04:14:31;;;;;;;9.10;7.10;;;;;;;15.77;100.00;96983.81;2608912;28;20045;-85
2023/09/22 04:15:46;;;;;;;9.95;7.53;;;;;;;15.84;100.00;96987.72;2608974;28;20390;-85
2023/09/22 04:17:02;;;;;;;9.68;7.03;;;;;;;15.71;100.00;96985.13;2608843;28;20045;-85
2023/09/22 04:18:18;;;;;;;11.68;6.70;;;;;;;15.67;100.00;96989.78;2609004;28;20497;-85
2023/09/22 04:19:33;;;;;;;10.32;7.03;;;;;;;15.64;100.00;96984.72;2609219;28;20051;-85
2023/09/22 04:20:52;;;;;;;9.45;7.00;;;;;;;15.66;100.00;96985.47;2609282;28;20053;-85
2023/09/22 04:22:08;;;;;;;9.27;6.90;;;;;;;15.66;100.00;96971.44;2608839;28;20080;-86
2023/09/22 04:23:25;;;;;;;11.18;7.13;;;;;;;15.74;100.00;96970.88;2609020;28;20132;-85
2023/09/22 04:24:47;;;;;;;11.43;7.38;;;;;;;15.74;100.00;96970.88;2608895;28;20060;-85
2023/09/22 04:26:09;;;;;;;10.30;7.32;;;;;;;15.77;100.00;96968.84;2608891;28;20469;-85
2023/09/22 04:27:32;;;;;;;;;;;;;;;15.78;100.00;96957.34;2609580;28;20144;-85
2023/09/22 04:28:48;;;;;;;10.88;6.68;;;;;;;15.75;100.00;96946.16;2609055;28;20350;-86
2023/09/22 04:30:07;;;;;;;10.38;7.10;;;;;;;15.72;100.00;96949.03;2597422;28;20045;-85
2023/09/22 04:31:24;;;;;;;10.65;6.53;;;;;;;15.76;100.00;96946.06;2602571;28;20063;-86
2023/09/22 04:32:41;;;;;;;9.13;7.40;;;;;;;15.70;100.00;96945.66;2608587;28;20132;-85
2023/09/22 04:33:57;;;;;;;10.10;7.90;;;;;;;15.74;100.00;96947.97;2608811;28;20106;-85
2023/09/22 04:35:12;;;;;;;8.45;7.18;;;;;;;15.72;100.00;96956.94;2608789;28;20696;-85
2023/09/22 04:36:27;;;;;;;11.35;6.93;;;;;;;15.56;100.00;96950.16;2608748;28;20119;-85
2023/09/22 04:37:43;;;;;;;11.32;6.80;;;;;;;15.44;100.00;96957.16;2608996;28;20523;-85
2023/09/22 04:39:00;;;;;;;9.77;7.10;;;;;;;15.46;100.00;96959.66;2608862;28;20045;-86
2023/09/22 04:40:24;;;;;;;9.82;7.13;;;;;;;15.55;100.00;96956.38;2608563;28;20111;-85
2023/09/22 04:41:40;;;;;;;11.27;6.85;;;;;;;15.65;100.00;96959.19;2597411;28;20136;-85
2023/09/22 04:42:56;;;;;;;9.05;7.03;;;;;;;15.81;100.00;96956.28;2601736;28;20128;-85
2023/09/22 04:44:12;;;;;;;8.77;6.82;;;;;;;15.90;100.00;96966.19;2608740;28;20420;-85
2023/09/22 04:45:27;;;;;;;8.60;6.60;;;;;;;15.95;100.00;96973.75;2608090;28;20044;-85
2023/09/22 04:46:44;;;;;;;11.05;7.00;;;;;;;16.03;100.00;96984.59;2606514;28;20049;-85
2023/09/22 04:48:02;;;;;;;8.70;7.18;;;;;;;16.11;100.00;96989.31;2606654;28;20504;-86
2023/09/22 04:49:18;;;;;;;11.00;7.38;;;;;;;16.16;100.00;96995.09;2607964;28;20048;-86
2023/09/22 04:50:34;;;;;;;15.18;7.45;;;;;;;16.26;100.00;97008.44;2608896;28;20041;-85
2023/09/22 04:51:49;;;;;;;10.77;7.30;;;;;;;16.19;100.00;97002.78;2608552;28;20140;-85
2023/09/22 04:53:05;;;;;;;8.98;7.45;;;;;;;16.13;100.00;97008.53;2607158;28;20057;-85
2023/09/22 04:54:21;;;;;;;10.27;7.53;;;;;;;16.16;100.00;97018.03;2608278;28;20045;-86
2023/09/22 04:55:37;;;;;;;11.27;7.45;;;;;;;16.12;100.00;97014.75;2608651;28;20480;-85
2023/09/22 04:56:52;;;;;;;9.02;7.20;;;;;;;16.11;100.00;97018.34;2608722;28;20095;-85
2023/09/22 04:58:08;;;;;;;11.07;7.13;;;;;;;16.15;100.00;97022.44;2608936;28;20677;-91
2023/09/22 04:59:24;;;;;;;10.65;7.30;;;;;;;16.24;100.00;97016.50;2608422;28;20057;-90
2023/09/22 05:00:40;;;;;;;8.43;6.68;;;;;;;16.41;100.00;97030.25;2608136;28;20068;-92
2023/09/22 05:01:59;;;;;;;9.90;7.15;;;;;;;16.55;100.00;97033.66;2609807;28;20182;-86
2023/09/22 05:03:15;;;;;;;8.00;6.57;;;;;;;16.60;100.00;97028.84;2608222;28;20626;-86
2023/09/22 05:04:30;;;;;;;7.15;6.20;;;;;;;16.66;100.00;97031.88;2608861;28;20060;-86
2023/09/22 05:05:46;;;;;;;8.00;6.20;;;;;;;16.75;100.00;97025.03;2608707;28;20396;-85
2023/09/22 05:07:01;;;;;;;8.60;6.38;;;;;;;16.76;100.00;97020.59;2608746;28;20056;-86
2023/09/22 05:08:17;;;;;;;8.95;6.25;;;;;;;16.86;100.00;97020.75;2608820;28;20132;-85
2023/09/22 05:09:33;;;;;;;11.18;6.32;;;;;;;16.85;100.00;97016.41;2608921;28;20480;-85
2023/09/22 05:10:48;;;;;;;8.55;6.45;;;;;;;16.90;100.00;97019.53;2608744;28;20060;-85
2023/09/22 05:12:04;;;;;;;13.65;6.20;;;;;;;16.93;100.00;97027.25;2608708;28;20543;-86
2023/09/22 05:13:20;;;;;;;10.35;6.38;;;;;;;16.94;100.00;97035.06;2608461;28;20041;-86
2023/09/22 05:14:36;;;;;;;10.02;6.85;;;;;;;16.99;100.00;97032.09;2602711;28;20049;-86
2023/09/22 05:15:52;;;;;;;8.25;6.80;;;;;;;16.97;100.00;97035.78;2605308;28;20041;-86
2023/09/22 05:17:07;;;;;;;10.63;6.93;;;;;;;17.03;100.00;97038.00;2608401;28;20504;-85
2023/09/22 05:18:23;;;;;;;7.72;6.53;;;;;;;17.01;100.00;97032.81;2608822;28;20123;-86
2023/09/22 05:19:39;;;;;;;11.52;6.97;;;;;;;16.94;100.00;97036.88;2608739;28;20420;-86
2023/09/22 05:20:54;;;;;;;7.70;6.15;;;;;;;16.84;100.00;97046.47;2608723;28;20052;-86
2023/09/22 05:22:10;;;;;;;7.15;6.30;;;;;;;16.70;100.00;97055.44;2608703;28;20049;-87
2023/09/22 05:23:32;;;;;;;9.10;6.85;;;;;;;16.57;100.00;97059.00;2608360;28;20132;-86
2023/09/22 05:24:47;;;;;;;10.13;6.95;;;;;;;16.48;100.00;97059.69;2608552;28;20048;-86
2023/09/22 05:26:07;;;;;;;11.38;6.55;;;;;;;16.42;100.00;97060.97;2608496;28;20459;-86
2023/09/22 05:27:24;;;;;;;10.20;7.07;;;;;;;16.43;100.00;97061.84;2608599;28;20119;-86
2023/09/22 05:28:39;;;;;;;9.93;7.22;;;;;;;16.39;100.00;97074.41;2608669;28;20495;-86
2023/09/22 05:29:55;;;;;;;9.68;6.93;;;;;;;16.40;100.00;97081.38;2608260;28;20049;-86
2023/09/22 05:31:10;;;;;;;8.43;6.32;;;;;;;16.40;100.00;97080.53;2608767;28;20056;-86
2023/09/22 05:32:27;;;;;;;10.52;7.05;;;;;;;16.40;100.00;97083.16;2608713;28;20063;-86
2023/09/22 05:33:42;;;;;;;9.85;6.45;;;;;;;16.42;100.00;97082.13;2608695;28;20052;-86
2023/09/22 05:34:59;;;;;;;9.15;6.60;;;;;;;16.43;100.00;97075.88;2608622;28;20128;-86
2023/09/22 05:36:15;;;;;;;8.38;4.90;;;;;;;16.60;100.00;97079.91;2608667;28;20393;-87
2023/09/22 05:37:31;;;;;;;5.38;4.20;;;;;;;16.82;100.00;97062.41;2608862;28;20059;-86
2023/09/22 05:38:46;;;;;;;5.28;3.45;;;;;;;17.01;100.00;97058.44;2608555;28;20060;-86
2023/09/22 05:40:05;;;;;;;4.18;3.30;;;;;;;17.14;100.00;97063.59;2608211;28;20496;-86
2023/09/22 05:41:21;;;;;;;5.07;3.20;;;;;;;17.30;100.00;97072.03;2608523;28;20436;-90
2023/09/22 05:42:37;;;;;;;4.38;3.10;;;;;;;17.45;100.00;97085.00;2608619;28;20045;-93
2023/09/22 05:43:56;;;;;;;3.85;2.95;;;;;;;17.60;100.00;97083.00;2608945;28;20049;-92
2023/09/22 05:45:11;;;;;;;5.18;2.85;;;;;;;17.76;100.00;97083.44;2608750;28;20114;-91
2023/09/22 05:46:27;;;;;;;4.40;2.65;;;;;;;17.86;100.00;97086.19;2608939;28;20049;-90
2023/09/22 05:47:43;;;;;;;4.20;2.75;;;;;;;17.81;100.00;97083.09;2608299;28;20122;-90
2023/09/22 05:48:58;;;;;;;4.13;2.88;;;;;;;17.95;100.00;97089.09;2608994;28;20053;-90
2023/09/22 05:50:14;;;;;;;11.23;3.88;;;;;;;17.96;100.00;97085.47;2608602;28;20045;-90
2023/09/22 05:51:32;;;;;;;5.97;2.75;;;;;;;17.99;100.00;97086.09;2608835;28;20071;-90
2023/09/22 05:52:47;;;;;;;6.38;2.88;;;;;;;17.99;100.00;97091.38;2608544;28;20135;-90